sensor_id;sensor_type;location;lat;lon;timestamp;noise_LAeq;noise_LA_min;noise_LA_max;noise_LA01;noise_LA95
48148;Laerm;29352;48.708;9.290;2023-04-15T00:00:10;59.98;15.00;96.22;;
48148;Laerm;29352;48.708;9.290;2023-04-15T00:02:36;64.77;15.00;96.22;;
48148;Laerm;29352;48.708;9.290;2023-04-15T00:05:02;60.01;15.00;96.22;;
48148;Laerm;29352;48.708;9.290;2023-04-15T00:07:28;66.04;15.00;96.22;;
48148;Laerm;29352;48.708;9.290;2023-04-15T00:09:54;71.47;15.00;96.22;;
48148;Laerm;29352;48.708;9.290;2023-04-15T00:12:22;80.01;15.00;99.23;;
48148;Laerm;29352;48.708;9.290;2023-04-15T00:14:48;74.46;15.00;96.22;;
48148;Laerm;29352;48.708;9.290;2023-04-15T00:17:14;75.89;15.00;99.23;;
48148;Laerm;29352;48.708;9.290;2023-04-15T00:19:40;73.23;15.00;96.22;;
48148;Laerm;29352;48.708;9.290;2023-04-15T00:22:05;70.01;15.00;96.22;;
48148;Laerm;29352;48.708;9.290;2023-04-15T00:24:31;15.00;15.00;15.00;;
48148;Laerm;29352;48.708;9.290;2023-04-15T00:26:57;15.00;15.00;15.00;;
48148;Laerm;29352;48.708;9.290;2023-04-15T00:29:23;63.03;15.00;96.22;;
48148;Laerm;29352;48.708;9.290;2023-04-15T00:31:48;60.02;15.00;96.22;;
48148;Laerm;29352;48.708;9.290;2023-04-15T00:34:14;64.80;15.00;96.22;;
48148;Laerm;29352;48.708;9.290;2023-04-15T00:36:39;63.04;15.00;96.22;;
48148;Laerm;29352;48.708;9.290;2023-04-15T00:39:05;15.00;15.00;15.00;;
48148;Laerm;29352;48.708;9.290;2023-04-15T00:41:31;63.04;15.00;96.22;;
48148;Laerm;29352;48.708;9.290;2023-04-15T00:43:58;65.91;15.00;96.22;;
48148;Laerm;29352;48.708;9.290;2023-04-15T00:46:27;65.93;15.00;96.22;;
48148;Laerm;29352;48.708;9.290;2023-04-15T00:48:54;71.12;15.00;96.22;;
48148;Laerm;29352;48.708;9.290;2023-04-15T00:51:20;67.74;15.00;96.22;;
48148;Laerm;29352;48.708;9.290;2023-04-15T00:53:45;63.04;15.00;96.22;;
48148;Laerm;29352;48.708;9.290;2023-04-15T00:56:11;63.03;15.00;96.22;;
48148;Laerm;29352;48.708;9.290;2023-04-15T00:58:38;64.76;15.00;96.22;;
48148;Laerm;29352;48.708;9.290;2023-04-15T01:01:04;64.78;15.00;96.21;;
48148;Laerm;29352;48.708;9.290;2023-04-15T01:03:29;15.00;15.00;15.00;;
48148;Laerm;29352;48.708;9.290;2023-04-15T01:05:55;67.00;15.00;96.22;;
48148;Laerm;29352;48.708;9.290;2023-04-15T01:08:29;67.56;15.00;96.22;;
48148;Laerm;29352;48.708;9.290;2023-04-15T01:11:00;71.35;15.00;96.22;;
48148;Laerm;29352;48.708;9.290;2023-04-15T01:13:26;64.65;15.00;96.22;;
48148;Laerm;29352;48.708;9.290;2023-04-15T01:15:52;66.03;15.00;96.22;;
48148;Laerm;29352;48.708;9.290;2023-04-15T01:18:18;64.79;15.00;96.21;;
48148;Laerm;29352;48.708;9.290;2023-04-15T01:20:44;60.02;15.00;96.22;;
48148;Laerm;29352;48.708;9.290;2023-04-15T01:23:10;15.00;15.00;15.00;;
48148;Laerm;29352;48.708;9.290;2023-04-15T01:25:35;65.96;15.00;96.22;;
48148;Laerm;29352;48.708;9.290;2023-04-15T01:28:01;72.78;15.00;96.22;;
48148;Laerm;29352;48.708;9.290;2023-04-15T01:30:27;67.80;15.00;96.22;;
48148;Laerm;29352;48.708;9.290;2023-04-15T01:32:53;64.68;15.00;96.22;;
48148;Laerm;29352;48.708;9.290;2023-04-15T01:35:19;67.80;15.00;96.22;;
48148;Laerm;29352;48.708;9.290;2023-04-15T01:37:46;66.97;15.00;96.22;;
48148;Laerm;29352;48.708;9.290;2023-04-15T01:40:11;69.01;15.00;96.22;;
48148;Laerm;29352;48.708;9.290;2023-04-15T01:42:38;70.00;15.00;96.22;;
48148;Laerm;29352;48.708;9.290;2023-04-15T01:45:04;68.46;15.00;96.22;;
48148;Laerm;29352;48.708;9.290;2023-04-15T01:47:30;64.77;15.00;96.22;;
48148;Laerm;29352;48.708;9.290;2023-04-15T01:49:56;63.03;15.00;96.22;;
48148;Laerm;29352;48.708;9.290;2023-04-15T01:52:22;66.05;15.00;96.22;;
48148;Laerm;29352;48.708;9.290;2023-04-15T01:54:47;66.04;15.00;96.22;;
48148;Laerm;29352;48.708;9.290;2023-04-15T01:57:13;63.04;15.00;96.22;;
48148;Laerm;29352;48.708;9.290;2023-04-15T01:59:39;63.03;15.00;96.22;;
48148;Laerm;29352;48.708;9.290;2023-04-15T02:02:05;63.02;15.00;96.22;;
48148;Laerm;29352;48.708;9.290;2023-04-15T02:04:31;60.01;15.00;95.99;;
48148;Laerm;29352;48.708;9.290;2023-04-15T02:06:56;15.00;15.00;15.00;;
48148;Laerm;29352;48.708;9.290;2023-04-15T02:09:22;15.00;15.00;15.00;;
48148;Laerm;29352;48.708;9.290;2023-04-15T02:11:47;62.87;15.00;96.22;;
48148;Laerm;29352;48.708;9.290;2023-04-15T02:14:13;15.00;15.00;15.00;;
48148;Laerm;29352;48.708;9.290;2023-04-15T02:16:38;63.04;15.00;96.22;;
48148;Laerm;29352;48.708;9.290;2023-04-15T02:19:04;60.01;15.00;96.21;;
48148;Laerm;29352;48.708;9.290;2023-04-15T02:21:30;60.03;15.00;96.21;;
48148;Laerm;29352;48.708;9.290;2023-04-15T02:23:55;65.96;15.00;96.21;;
48148;Laerm;29352;48.708;9.290;2023-04-15T02:26:21;15.00;15.00;15.00;;
48148;Laerm;29352;48.708;9.290;2023-04-15T02:28:48;15.00;15.00;15.00;;
48148;Laerm;29352;48.708;9.290;2023-04-15T02:31:15;15.00;15.00;15.00;;
48148;Laerm;29352;48.708;9.290;2023-04-15T02:33:41;59.67;15.00;95.87;;
48148;Laerm;29352;48.708;9.290;2023-04-15T02:36:07;15.00;15.00;15.00;;
48148;Laerm;29352;48.708;9.290;2023-04-15T02:38:33;15.00;15.00;15.00;;
48148;Laerm;29352;48.708;9.290;2023-04-15T02:40:59;15.00;15.00;15.00;;
48148;Laerm;29352;48.708;9.290;2023-04-15T02:43:24;15.00;15.00;15.00;;
48148;Laerm;29352;48.708;9.290;2023-04-15T02:45:49;60.03;15.00;96.22;;
48148;Laerm;29352;48.708;9.290;2023-04-15T02:48:15;60.02;15.00;96.22;;
48148;Laerm;29352;48.708;9.290;2023-04-15T02:50:44;15.00;15.00;15.00;;
48148;Laerm;29352;48.708;9.290;2023-04-15T02:53:10;60.00;15.00;96.22;;
48148;Laerm;29352;48.708;9.290;2023-04-15T02:55:35;64.80;15.00;96.22;;
48148;Laerm;29352;48.708;9.290;2023-04-15T02:58:01;63.02;15.00;96.22;;
48148;Laerm;29352;48.708;9.290;2023-04-15T03:00:27;59.68;15.00;95.87;;
48148;Laerm;29352;48.708;9.290;2023-04-15T03:03:01;15.00;15.00;15.00;;
48148;Laerm;29352;48.708;9.290;2023-04-15T03:05:27;15.00;15.00;15.00;;
48148;Laerm;29352;48.708;9.290;2023-04-15T03:07:53;15.00;15.00;15.00;;
48148;Laerm;29352;48.708;9.290;2023-04-15T03:10:20;63.01;15.00;96.22;;
48148;Laerm;29352;48.708;9.290;2023-04-15T03:12:45;15.00;15.00;15.00;;
48148;Laerm;29352;48.708;9.290;2023-04-15T03:15:11;67.01;15.00;96.22;;
48148;Laerm;29352;48.708;9.290;2023-04-15T03:17:37;63.03;15.00;96.22;;
48148;Laerm;29352;48.708;9.290;2023-04-15T03:20:04;15.00;15.00;15.00;;
48148;Laerm;29352;48.708;9.290;2023-04-15T03:22:31;15.00;15.00;15.00;;
48148;Laerm;29352;48.708;9.290;2023-04-15T03:24:56;15.00;15.00;15.00;;
48148;Laerm;29352;48.708;9.290;2023-04-15T03:27:22;60.02;15.00;96.21;;
48148;Laerm;29352;48.708;9.290;2023-04-15T03:29:48;64.79;15.00;96.22;;
48148;Laerm;29352;48.708;9.290;2023-04-15T03:32:13;73.23;15.00;96.22;;
48148;Laerm;29352;48.708;9.290;2023-04-15T03:34:40;77.53;15.00;96.22;;
48148;Laerm;29352;48.708;9.290;2023-04-15T03:37:06;78.92;15.00;99.23;;
48148;Laerm;29352;48.708;9.290;2023-04-15T03:39:33;77.55;15.00;96.22;;
48148;Laerm;29352;48.708;9.290;2023-04-15T03:41:58;15.00;15.00;15.00;;
48148;Laerm;29352;48.708;9.290;2023-04-15T03:44:25;69.95;15.00;96.22;;
48148;Laerm;29352;48.708;9.290;2023-04-15T03:46:51;64.81;15.00;96.21;;
48148;Laerm;29352;48.708;9.290;2023-04-15T03:49:16;67.76;15.00;96.21;;
48148;Laerm;29352;48.708;9.290;2023-04-15T03:51:43;73.77;15.00;96.22;;
48148;Laerm;29352;48.708;9.290;2023-04-15T03:54:09;74.92;15.00;96.22;;
48148;Laerm;29352;48.708;9.290;2023-04-15T03:56:35;71.69;15.00;96.22;;
48148;Laerm;29352;48.708;9.290;2023-04-15T03:59:01;68.43;15.00;96.22;;
48148;Laerm;29352;48.708;9.290;2023-04-15T04:01:26;67.02;15.00;96.22;;
48148;Laerm;29352;48.708;9.290;2023-04-15T04:03:52;69.02;15.00;96.22;;
48148;Laerm;29352;48.708;9.290;2023-04-15T04:06:17;70.03;15.00;96.22;;
48148;Laerm;29352;48.708;9.290;2023-04-15T04:08:42;63.04;15.00;96.21;;
48148;Laerm;29352;48.708;9.290;2023-04-15T04:11:08;68.48;15.00;96.22;;
48148;Laerm;29352;48.708;9.290;2023-04-15T04:13:33;64.80;15.00;96.22;;
48148;Laerm;29352;48.708;9.290;2023-04-15T04:15:59;74.33;15.00;99.23;;
48148;Laerm;29352;48.708;9.290;2023-04-15T04:18:25;80.05;15.00;99.23;;
48148;Laerm;29352;48.708;9.290;2023-04-15T04:20:50;72.33;15.00;96.22;;
48148;Laerm;29352;48.708;9.290;2023-04-15T04:23:16;69.53;15.00;96.21;;
48148;Laerm;29352;48.708;9.290;2023-04-15T04:25:41;74.28;15.00;99.22;;
48148;Laerm;29352;48.708;9.290;2023-04-15T04:28:07;76.32;15.00;99.22;;
48148;Laerm;29352;48.708;9.290;2023-04-15T04:30:34;70.42;15.00;96.22;;
48148;Laerm;29352;48.708;9.290;2023-04-15T04:33:00;73.81;15.00;96.21;;
48148;Laerm;29352;48.708;9.290;2023-04-15T04:35:25;80.76;15.00;99.23;;
48148;Laerm;29352;48.708;9.290;2023-04-15T04:37:51;70.75;15.00;98.88;;
48148;Laerm;29352;48.708;9.290;2023-04-15T04:40:18;76.95;15.00;96.22;;
48148;Laerm;29352;48.708;9.290;2023-04-15T04:42:43;77.86;15.00;99.23;;
48148;Laerm;29352;48.708;9.290;2023-04-15T04:45:09;74.92;15.00;99.22;;
48148;Laerm;29352;48.708;9.290;2023-04-15T04:50:00;15.00;15.00;15.00;;
48148;Laerm;29352;48.708;9.290;2023-04-15T04:52:25;15.00;15.00;15.00;;
48148;Laerm;29352;48.708;9.290;2023-04-15T04:54:51;15.00;15.00;15.00;;
48148;Laerm;29352;48.708;9.290;2023-04-15T04:57:16;15.00;15.00;15.00;;
48148;Laerm;29352;48.708;9.290;2023-04-15T04:59:42;15.00;15.00;15.00;;
48148;Laerm;29352;48.708;9.290;2023-04-15T05:02:07;15.00;15.00;15.00;;
48148;Laerm;29352;48.708;9.290;2023-04-15T05:04:33;15.00;15.00;15.00;;
48148;Laerm;29352;48.708;9.290;2023-04-15T05:06:58;15.00;15.00;15.00;;
48148;Laerm;29352;48.708;9.290;2023-04-15T05:09:24;15.00;15.00;15.00;;
48148;Laerm;29352;48.708;9.290;2023-04-15T05:11:49;15.00;15.00;15.00;;
48148;Laerm;29352;48.708;9.290;2023-04-15T05:14:15;15.00;15.00;15.00;;
48148;Laerm;29352;48.708;9.290;2023-04-15T05:16:40;15.00;15.00;15.00;;
48148;Laerm;29352;48.708;9.290;2023-04-15T05:19:06;15.00;15.00;15.00;;
48148;Laerm;29352;48.708;9.290;2023-04-15T05:21:32;15.00;15.00;15.00;;
48148;Laerm;29352;48.708;9.290;2023-04-15T05:23:57;15.00;15.00;15.00;;
48148;Laerm;29352;48.708;9.290;2023-04-15T05:26:23;15.00;15.00;15.00;;
48148;Laerm;29352;48.708;9.290;2023-04-15T05:28:49;15.00;15.00;15.00;;
48148;Laerm;29352;48.708;9.290;2023-04-15T05:31:15;15.00;15.00;15.00;;
48148;Laerm;29352;48.708;9.290;2023-04-15T05:33:41;15.00;15.00;15.00;;
48148;Laerm;29352;48.708;9.290;2023-04-15T05:36:06;15.00;15.00;15.00;;
48148;Laerm;29352;48.708;9.290;2023-04-15T05:38:32;44.06;15.00;75.64;;
48148;Laerm;29352;48.708;9.290;2023-04-15T05:40:57;43.19;15.00;70.25;;
48148;Laerm;29352;48.708;9.290;2023-04-15T05:43:23;52.42;15.00;79.27;;
48148;Laerm;29352;48.708;9.290;2023-04-15T05:45:48;52.88;15.00;82.41;;
48148;Laerm;29352;48.708;9.290;2023-04-15T05:48:14;48.27;15.00;77.16;;
48148;Laerm;29352;48.708;9.290;2023-04-15T05:50:42;47.90;15.00;78.80;;
48148;Laerm;29352;48.708;9.290;2023-04-15T05:53:08;45.93;15.00;75.76;;
48148;Laerm;29352;48.708;9.290;2023-04-15T05:55:34;15.00;15.00;15.00;;
48148;Laerm;29352;48.708;9.290;2023-04-15T05:58:00;15.00;15.00;15.00;;
48148;Laerm;29352;48.708;9.290;2023-04-15T06:00:25;15.00;15.00;15.00;;
48148;Laerm;29352;48.708;9.290;2023-04-15T06:02:51;15.00;15.00;15.00;;
48148;Laerm;29352;48.708;9.290;2023-04-15T06:05:17;15.00;15.00;15.00;;
48148;Laerm;29352;48.708;9.290;2023-04-15T06:07:43;15.00;15.00;15.00;;
48148;Laerm;29352;48.708;9.290;2023-04-15T06:10:09;15.00;15.00;15.00;;
48148;Laerm;29352;48.708;9.290;2023-04-15T06:12:35;15.00;15.00;15.00;;
48148;Laerm;29352;48.708;9.290;2023-04-15T06:15:01;15.00;15.00;15.00;;
48148;Laerm;29352;48.708;9.290;2023-04-15T06:17:26;15.00;15.00;15.00;;
48148;Laerm;29352;48.708;9.290;2023-04-15T06:19:52;15.00;15.00;15.00;;
48148;Laerm;29352;48.708;9.290;2023-04-15T06:22:22;15.00;15.00;15.00;;
48148;Laerm;29352;48.708;9.290;2023-04-15T06:24:48;15.00;15.00;15.00;;
48148;Laerm;29352;48.708;9.290;2023-04-15T06:27:17;15.00;15.00;15.00;;
48148;Laerm;29352;48.708;9.290;2023-04-15T06:29:43;15.00;15.00;15.00;;
48148;Laerm;29352;48.708;9.290;2023-04-15T06:32:09;15.00;15.00;15.00;;
48148;Laerm;29352;48.708;9.290;2023-04-15T06:34:35;15.00;15.00;15.00;;
48148;Laerm;29352;48.708;9.290;2023-04-15T06:37:00;15.00;15.00;15.00;;
48148;Laerm;29352;48.708;9.290;2023-04-15T06:39:26;15.00;15.00;15.00;;
48148;Laerm;29352;48.708;9.290;2023-04-15T06:41:52;15.00;15.00;15.00;;
48148;Laerm;29352;48.708;9.290;2023-04-15T06:44:17;15.00;15.00;15.00;;
48148;Laerm;29352;48.708;9.290;2023-04-15T06:46:43;15.00;15.00;15.00;;
48148;Laerm;29352;48.708;9.290;2023-04-15T06:49:09;15.00;15.00;15.00;;
48148;Laerm;29352;48.708;9.290;2023-04-15T06:51:35;15.00;15.00;15.00;;
48148;Laerm;29352;48.708;9.290;2023-04-15T06:54:02;15.00;15.00;15.00;;
48148;Laerm;29352;48.708;9.290;2023-04-15T06:56:33;15.00;15.00;15.00;;
48148;Laerm;29352;48.708;9.290;2023-04-15T06:58:59;15.00;15.00;15.00;;
48148;Laerm;29352;48.708;9.290;2023-04-15T07:01:25;15.00;15.00;15.00;;
48148;Laerm;29352;48.708;9.290;2023-04-15T07:03:50;15.00;15.00;15.00;;
48148;Laerm;29352;48.708;9.290;2023-04-15T07:06:16;15.00;15.00;15.00;;
48148;Laerm;29352;48.708;9.290;2023-04-15T07:08:42;15.00;15.00;15.00;;
48148;Laerm;29352;48.708;9.290;2023-04-15T07:11:08;15.00;15.00;15.00;;
48148;Laerm;29352;48.708;9.290;2023-04-15T07:13:33;15.00;15.00;15.00;;
48148;Laerm;29352;48.708;9.290;2023-04-15T07:15:59;15.00;15.00;15.00;;
48148;Laerm;29352;48.708;9.290;2023-04-15T07:18:24;15.00;15.00;15.00;;
48148;Laerm;29352;48.708;9.290;2023-04-15T07:20:50;15.00;15.00;15.00;;
48148;Laerm;29352;48.708;9.290;2023-04-15T07:23:16;15.00;15.00;15.00;;
48148;Laerm;29352;48.708;9.290;2023-04-15T07:25:41;15.00;15.00;15.00;;
48148;Laerm;29352;48.708;9.290;2023-04-15T07:28:06;15.00;15.00;15.00;;
48148;Laerm;29352;48.708;9.290;2023-04-15T07:30:32;15.00;15.00;15.00;;
48148;Laerm;29352;48.708;9.290;2023-04-15T07:32:59;15.00;15.00;15.00;;
48148;Laerm;29352;48.708;9.290;2023-04-15T07:35:24;15.00;15.00;15.00;;
48148;Laerm;29352;48.708;9.290;2023-04-15T07:37:50;25.95;15.00;60.04;;
48148;Laerm;29352;48.708;9.290;2023-04-15T07:40:17;52.42;15.00;83.22;;
48148;Laerm;29352;48.708;9.290;2023-04-15T07:42:43;15.00;15.00;15.00;;
48148;Laerm;29352;48.708;9.290;2023-04-15T07:45:09;15.00;15.00;15.00;;
48148;Laerm;29352;48.708;9.290;2023-04-15T07:47:34;15.00;15.00;15.00;;
48148;Laerm;29352;48.708;9.290;2023-04-15T07:50:00;15.00;15.00;15.00;;
48148;Laerm;29352;48.708;9.290;2023-04-15T07:52:27;15.00;15.00;15.00;;
48148;Laerm;29352;48.708;9.290;2023-04-15T07:54:52;15.00;15.00;15.00;;
48148;Laerm;29352;48.708;9.290;2023-04-15T07:57:18;15.00;15.00;15.00;;
48148;Laerm;29352;48.708;9.290;2023-04-15T07:59:43;15.00;15.00;15.00;;
48148;Laerm;29352;48.708;9.290;2023-04-15T08:02:11;15.00;15.00;15.00;;
48148;Laerm;29352;48.708;9.290;2023-04-15T08:04:36;15.00;15.00;15.00;;
48148;Laerm;29352;48.708;9.290;2023-04-15T08:07:03;15.00;15.00;15.00;;
48148;Laerm;29352;48.708;9.290;2023-04-15T08:09:29;15.00;15.00;15.00;;
48148;Laerm;29352;48.708;9.290;2023-04-15T08:11:55;15.00;15.00;15.00;;
48148;Laerm;29352;48.708;9.290;2023-04-15T08:14:21;15.00;15.00;15.00;;
48148;Laerm;29352;48.708;9.290;2023-04-15T08:16:47;18.37;15.00;51.89;;
48148;Laerm;29352;48.708;9.290;2023-04-15T08:19:12;53.52;15.00;89.63;;
48148;Laerm;29352;48.708;9.290;2023-04-15T08:21:38;33.00;15.00;68.14;;
48148;Laerm;29352;48.708;9.290;2023-04-15T08:24:05;61.93;15.00;94.74;;
48148;Laerm;29352;48.708;9.290;2023-04-15T08:26:31;45.57;15.00;75.36;;
48148;Laerm;29352;48.708;9.290;2023-04-15T08:28:56;71.95;15.00;96.15;;
48148;Laerm;29352;48.708;9.290;2023-04-15T08:31:22;71.07;15.00;96.21;;
48148;Laerm;29352;48.708;9.290;2023-04-15T08:33:47;41.86;15.00;49.21;;
48148;Laerm;29352;48.708;9.290;2023-04-15T08:36:13;44.44;15.00;50.03;;
48148;Laerm;29352;48.708;9.290;2023-04-15T08:38:39;45.56;15.00;50.33;;
48148;Laerm;29352;48.708;9.290;2023-04-15T08:41:20;45.78;15.00;50.71;;
48148;Laerm;29352;48.708;9.290;2023-04-15T08:44:00;46.07;15.00;50.80;;
48148;Laerm;29352;48.708;9.290;2023-04-15T08:46:27;46.97;33.90;54.03;;
48148;Laerm;29352;48.708;9.290;2023-04-15T08:48:57;44.17;15.00;49.92;;
48148;Laerm;29352;48.708;9.290;2023-04-15T08:51:23;44.56;15.00;49.46;;
48148;Laerm;29352;48.708;9.290;2023-04-15T08:53:50;45.39;15.00;51.22;;
48148;Laerm;29352;48.708;9.290;2023-04-15T08:56:25;45.71;15.00;50.33;;
48148;Laerm;29352;48.708;9.290;2023-04-15T08:58:52;45.81;15.00;50.13;;
48148;Laerm;29352;48.708;9.290;2023-04-15T09:01:18;45.57;15.00;50.98;;
48148;Laerm;29352;48.708;9.290;2023-04-15T09:03:47;45.53;15.00;50.43;;
48148;Laerm;29352;48.708;9.290;2023-04-15T09:06:16;47.76;36.91;52.09;;
48148;Laerm;29352;48.708;9.290;2023-04-15T09:08:42;48.58;39.92;57.93;;
48148;Laerm;29352;48.708;9.290;2023-04-15T09:11:09;48.97;43.90;53.86;;
48148;Laerm;29352;48.708;9.290;2023-04-15T09:13:34;50.27;45.94;53.72;;
48148;Laerm;29352;48.708;9.290;2023-04-15T09:16:05;50.33;46.91;52.22;;
48148;Laerm;29352;48.708;9.290;2023-04-15T09:18:37;51.00;48.37;52.93;;
48148;Laerm;29352;48.708;9.290;2023-04-15T09:21:11;51.45;47.70;53.24;;
48148;Laerm;29352;48.708;9.290;2023-04-15T09:23:52;51.22;49.21;53.54;;
48148;Laerm;29352;48.708;9.290;2023-04-15T09:26:18;51.61;49.34;52.98;;
48148;Laerm;29352;48.708;9.290;2023-04-15T09:28:43;51.66;49.58;53.04;;
48148;Laerm;29352;48.708;9.290;2023-04-15T09:31:09;51.67;49.92;53.09;;
48148;Laerm;29352;48.708;9.290;2023-04-15T09:33:35;51.79;49.92;53.24;;
48148;Laerm;29352;48.708;9.290;2023-04-15T09:36:18;51.93;50.33;53.24;;
48148;Laerm;29352;48.708;9.290;2023-04-15T09:38:58;51.85;49.92;55.77;;
48148;Laerm;29352;48.708;9.290;2023-04-15T09:41:25;51.64;49.92;53.04;;
48148;Laerm;29352;48.708;9.290;2023-04-15T09:43:51;51.77;49.70;53.39;;
48148;Laerm;29352;48.708;9.290;2023-04-15T09:46:18;51.77;50.03;53.24;;
48148;Laerm;29352;48.708;9.290;2023-04-15T09:48:43;51.68;49.70;54.03;;
48148;Laerm;29352;48.708;9.290;2023-04-15T09:51:12;51.65;49.92;55.01;;
48148;Laerm;29352;48.708;9.290;2023-04-15T09:53:37;51.69;50.03;53.09;;
48148;Laerm;29352;48.708;9.290;2023-04-15T09:56:03;51.58;48.95;53.09;;
48148;Laerm;29352;48.708;9.290;2023-04-15T09:58:34;51.77;49.58;53.19;;
48148;Laerm;29352;48.708;9.290;2023-04-15T10:01:03;50.62;47.32;52.88;;
48148;Laerm;29352;48.708;9.290;2023-04-15T10:03:34;49.71;45.94;51.75;;
48148;Laerm;29352;48.708;9.290;2023-04-15T10:06:01;49.48;45.66;51.89;;
48148;Laerm;29352;48.708;9.290;2023-04-15T10:08:33;49.12;44.69;51.38;;
48148;Laerm;29352;48.708;9.290;2023-04-15T10:11:01;49.62;40.89;52.09;;
48148;Laerm;29352;48.708;9.290;2023-04-15T10:13:30;50.34;47.52;55.14;;
48148;Laerm;29352;48.708;9.290;2023-04-15T10:16:12;49.67;45.36;52.65;;
48148;Laerm;29352;48.708;9.290;2023-04-15T10:18:43;49.12;45.04;51.82;;
48148;Laerm;29352;48.708;9.290;2023-04-15T10:21:10;48.87;44.31;51.38;;
48148;Laerm;29352;48.708;9.290;2023-04-15T10:23:38;47.93;39.92;51.06;;
48148;Laerm;29352;48.708;9.290;2023-04-15T10:26:05;47.14;36.91;50.89;;
48148;Laerm;29352;48.708;9.290;2023-04-15T10:28:31;47.73;39.92;50.80;;
48148;Laerm;29352;48.708;9.290;2023-04-15T10:30:58;48.83;40.89;52.03;;
48148;Laerm;29352;48.708;9.290;2023-04-15T10:33:26;51.53;49.08;53.04;;
48148;Laerm;29352;48.708;9.290;2023-04-15T10:35:55;52.12;50.23;53.24;;
48148;Laerm;29352;48.708;9.290;2023-04-15T10:38:40;52.16;50.62;53.54;;
48148;Laerm;29352;48.708;9.290;2023-04-15T10:41:22;52.02;50.13;53.29;;
48148;Laerm;29352;48.708;9.290;2023-04-15T10:44:03;51.96;50.13;54.51;;
48148;Laerm;29352;48.708;9.290;2023-04-15T10:46:44;51.98;50.43;53.39;;
48148;Laerm;29352;48.708;9.290;2023-04-15T10:49:24;51.84;49.81;53.24;;
48148;Laerm;29352;48.708;9.290;2023-04-15T10:51:56;51.84;49.70;53.19;;
48148;Laerm;29352;48.708;9.290;2023-04-15T10:57:07;52.03;50.33;53.39;;
48148;Laerm;29352;48.708;9.290;2023-04-15T10:59:58;52.04;49.34;54.07;;
48148;Laerm;29352;48.708;9.290;2023-04-15T11:02:54;51.92;48.21;53.24;;
48148;Laerm;29352;48.708;9.290;2023-04-15T11:05:48;51.33;46.69;53.14;;
48148;Laerm;29352;48.708;9.290;2023-04-15T11:08:14;51.43;45.94;53.14;;
48148;Laerm;29352;48.708;9.290;2023-04-15T11:15:41;48.86;44.31;51.53;;
48148;Laerm;29352;48.708;9.290;2023-04-15T11:20:55;47.88;39.92;50.98;;
48148;Laerm;29352;48.708;9.290;2023-04-15T11:23:39;48.30;36.91;51.46;;
48148;Laerm;29352;48.708;9.290;2023-04-15T11:26:10;49.03;43.90;54.76;;
48148;Laerm;29352;48.708;9.290;2023-04-15T11:28:41;48.82;40.89;51.46;;
48148;Laerm;29352;48.708;9.290;2023-04-15T11:31:13;48.90;42.93;52.09;;
48148;Laerm;29352;48.708;9.290;2023-04-15T11:34:00;47.93;36.91;51.30;;
48148;Laerm;29352;48.708;9.290;2023-04-15T11:36:29;47.33;15.00;51.38;;
48148;Laerm;29352;48.708;9.290;2023-04-15T11:38:58;47.83;15.00;51.46;;
48148;Laerm;29352;48.708;9.290;2023-04-15T11:41:24;48.36;42.93;51.06;;
48148;Laerm;29352;48.708;9.290;2023-04-15T11:43:51;48.02;42.93;50.89;;
48148;Laerm;29352;48.708;9.290;2023-04-15T11:46:17;47.43;15.00;51.06;;
48148;Laerm;29352;48.708;9.290;2023-04-15T11:48:45;47.26;15.00;51.22;;
48148;Laerm;29352;48.708;9.290;2023-04-15T11:51:13;46.46;15.00;50.89;;
48148;Laerm;29352;48.708;9.290;2023-04-15T11:53:46;47.13;33.90;50.80;;
48148;Laerm;29352;48.708;9.290;2023-04-15T11:56:24;47.65;33.90;51.06;;
48148;Laerm;29352;48.708;9.290;2023-04-15T11:58:57;47.18;33.90;50.53;;
48148;Laerm;29352;48.708;9.290;2023-04-15T12:01:37;65.35;15.00;94.92;;
48148;Laerm;29352;48.708;9.290;2023-04-15T12:04:13;73.62;15.00;96.22;;
48148;Laerm;29352;48.708;9.290;2023-04-15T12:06:39;59.18;15.00;90.94;;
48148;Laerm;29352;48.708;9.290;2023-04-15T12:11:33;15.00;15.00;15.00;;
48148;Laerm;29352;48.708;9.290;2023-04-15T12:16:34;15.65;15.00;43.44;;
48148;Laerm;29352;48.708;9.290;2023-04-15T12:19:06;15.00;15.00;15.00;;
48148;Laerm;29352;48.708;9.290;2023-04-15T12:21:36;15.00;15.00;15.00;;
48148;Laerm;29352;48.708;9.290;2023-04-15T12:24:07;15.00;15.00;15.00;;
48148;Laerm;29352;48.708;9.290;2023-04-15T12:26:42;15.00;15.00;15.00;;
48148;Laerm;29352;48.708;9.290;2023-04-15T12:29:07;15.00;15.00;15.00;;
48148;Laerm;29352;48.708;9.290;2023-04-15T12:31:35;15.00;15.00;15.00;;
48148;Laerm;29352;48.708;9.290;2023-04-15T12:34:07;15.00;15.00;15.00;;
48148;Laerm;29352;48.708;9.290;2023-04-15T12:36:33;15.00;15.00;15.00;;
48148;Laerm;29352;48.708;9.290;2023-04-15T12:39:04;15.00;15.00;15.00;;
48148;Laerm;29352;48.708;9.290;2023-04-15T12:41:31;48.47;15.00;70.63;;
48148;Laerm;29352;48.708;9.290;2023-04-15T12:43:58;15.00;15.00;15.00;;
48148;Laerm;29352;48.708;9.290;2023-04-15T12:46:24;15.00;15.00;15.00;;
48148;Laerm;29352;48.708;9.290;2023-04-15T12:48:50;116.00;15.00;124.04;;
48148;Laerm;29352;48.708;9.290;2023-04-15T12:51:18;113.19;15.00;123.80;;
48148;Laerm;29352;48.708;9.290;2023-04-15T12:53:46;52.59;15.00;83.04;;
48148;Laerm;29352;48.708;9.290;2023-04-15T12:56:12;69.63;15.00;96.21;;
48148;Laerm;29352;48.708;9.290;2023-04-15T12:58:38;68.97;15.00;95.39;;
48148;Laerm;29352;48.708;9.290;2023-04-15T13:01:03;56.74;15.00;92.61;;
48148;Laerm;29352;48.708;9.290;2023-04-15T13:03:29;60.14;15.00;93.94;;
48148;Laerm;29352;48.708;9.290;2023-04-15T13:05:54;51.93;15.00;83.96;;
48148;Laerm;29352;48.708;9.290;2023-04-15T13:08:22;65.60;15.00;94.95;;
48148;Laerm;29352;48.708;9.290;2023-04-15T13:10:47;52.34;15.00;85.64;;
48148;Laerm;29352;48.708;9.290;2023-04-15T13:13:12;53.49;15.00;84.88;;
48148;Laerm;29352;48.708;9.290;2023-04-15T13:15:38;57.77;15.00;91.18;;
48148;Laerm;29352;48.708;9.290;2023-04-15T13:18:05;61.39;15.00;94.41;;
48148;Laerm;29352;48.708;9.290;2023-04-15T13:20:31;51.29;15.00;84.33;;
48148;Laerm;29352;48.708;9.290;2023-04-15T13:22:56;52.00;15.00;82.07;;
48148;Laerm;29352;48.708;9.290;2023-04-15T13:25:22;57.69;15.00;90.37;;
48148;Laerm;29352;48.708;9.290;2023-04-15T13:27:48;56.98;15.00;88.60;;
48148;Laerm;29352;48.708;9.290;2023-04-15T13:30:13;54.28;15.00;89.66;;
48148;Laerm;29352;48.708;9.290;2023-04-15T13:32:39;15.00;15.00;15.00;;
48148;Laerm;29352;48.708;9.290;2023-04-15T13:35:04;53.68;15.00;87.12;;
48148;Laerm;29352;48.708;9.290;2023-04-15T13:37:30;59.21;15.00;91.88;;
48148;Laerm;29352;48.708;9.290;2023-04-15T13:39:56;49.97;15.00;76.57;;
48148;Laerm;29352;48.708;9.290;2023-04-15T13:42:22;59.44;15.00;90.20;;
48148;Laerm;29352;48.708;9.290;2023-04-15T13:44:51;51.21;15.00;77.38;;
48148;Laerm;29352;48.708;9.290;2023-04-15T13:47:18;46.28;15.00;77.09;;
48148;Laerm;29352;48.708;9.290;2023-04-15T13:49:43;15.00;15.00;15.00;;
48148;Laerm;29352;48.708;9.290;2023-04-15T13:52:11;30.80;15.00;66.91;;
48148;Laerm;29352;48.708;9.290;2023-04-15T13:54:36;38.72;15.00;73.53;;
48148;Laerm;29352;48.708;9.290;2023-04-15T13:57:02;59.48;15.00;94.41;;
48148;Laerm;29352;48.708;9.290;2023-04-15T13:59:28;58.56;15.00;94.24;;
48148;Laerm;29352;48.708;9.290;2023-04-15T14:01:53;55.08;15.00;87.56;;